ADDS METAR Data INFO
IDs: Format: Raw Decoded Include TAF

Data at: 1715 UTC 23 Oct 2017

PAHC 231656Z AUTO VRB03KT 10SM OVC030 M07/M08 A2969 RMK AO2 SLP059 T10671083 FZRANO
PAHC 231556Z AUTO VRB04KT 10SM OVC034 M07/M09 A2969 RMK AO2 SLP060 T10671089 FZRANO
PAHC 231456Z AUTO VRB03KT 10SM OVC032 M07/M08 A2969 RMK AO2 SLP059 T10671083 53005 FZRANO
PAHC 231356Z AUTO VRB03KT 10SM BKN032 OVC110 M08/M09 A2968 RMK AO2 SLP057 T10781094 FZRANO
PAHC 231256Z AUTO 01006KT 10SM SCT049 OVC110 M07/M09 A2968 RMK AO2 SLP055 T10721094 FZRANO
PAHC 231156Z AUTO 04005KT 10SM FEW038 OVC049 M08/M09 A2968 RMK AO2 SLP054 T10781094 11061 21083 51014 FZRANO
PAHC 231056Z AUTO 04004KT 10SM OVC044 M07/M09 A2967 RMK AO2 SLP050 T10721094 FZRANO
PAHC 230956Z AUTO 04006KT 10SM OVC042 M08/M09 A2965 RMK AO2 SLP046 T10781094 FZRANO
PAHC 230856Z AUTO 01006KT 10SM CLR M08/M09 A2964 RMK AO2 SLP040 T10781094 410441117 53017 FZRANO
PAHC 230756Z AUTO 03004KT 10SM OVC036 M07/M10 A2961 RMK AO2 SLP033 T10721100 FZRANO
PAHC 230656Z AUTO 02004KT 10SM SCT085 M07/M10 A2960 RMK AO2 SLP028 T10721100 FZRANO
PAHC 230556Z AUTO 03004KT 10SM FEW034 SCT070 OVC095 M06/M10 A2959 RMK AO2 SNE0457 SLP023 60000 T10611100 11044 21061 51016 FZRANO
PAHC 230456Z AUTO 02005KT 9SM -SN FEW050 OVC090 M06/M10 A2957 RMK AO2 SNB04E18B46 SLP018 P0000 T10611100 FZRANO
PAHC 230356Z AUTO VRB04KT 10SM BKN048 BKN060 OVC075 M06/M10 A2956 RMK AO2 SLP014 T10611100 FZRANO
PAHC 230256Z AUTO 36005KT 10SM OVC050 M06/M10 A2954 RMK AO2 SLP007 T10561100 53009 FZRANO
PAHC 230156Z AUTO 02005KT 10SM OVC055 M05/M11 A2952 RMK AO2 SLP001 T10501106 FZRANO
PAHC 230056Z AUTO 01005KT 10SM OVC065 M04/M11 A2951 RMK AO2 SLP999 T10441106 FZRANO
PAHC 222356Z AUTO 05008KT 10SM BKN045 OVC080 M06/M12 A2951 RMK AO2 SLP998 T10611117 11056 21117 51009 FZRANO
PAHC 222256Z AUTO 05006KT 10SM BKN090 M06/M12 A2950 RMK AO2 SLP995 T10561122 FZRANO
PAHC 222156Z AUTO 36007KT 10SM SCT095 M06/M13 A2950 RMK AO2 SLP994 T10611128 FZRANO
PAHC 222056Z AUTO 35006KT 10SM CLR M07/M12 A2948 RMK AO2 SLP989 T10671122 51017 FZRANO
PAHC 221956Z AUTO 01006KT 10SM CLR M09/M13 A2947 RMK AO2 SLP983 T10891128 FZRANO
PAHC 221856Z AUTO 00000KT 10SM CLR M10/M13 A2945 RMK AO2 SLP978 T11001133 FZRANO
PAHC 221756Z AUTO VRB04KT 10SM CLR M11/M14 A2943 RMK AO2 SLP972 T11111139 11089 21117 53016 FZRANO
PAHC 221656Z AUTO 01006KT 10SM CLR M11/M13 A2941 RMK AO2 SLP965 T11111133 FZRANO
PAHC 221556Z AUTO 03005KT 10SM CLR M10/M14 A2940 RMK AO2 SLP962 T11001139 FZRANO
PAHC 221456Z AUTO 03005KT 10SM CLR M10/M14 A2939 RMK AO2 SLP956 T11001139 53014 FZRANO
PAHC 221356Z AUTO 02006KT 10SM CLR M10/M13 A2937 RMK AO2 SLP950 T11001133 FZRANO
PAHC 221256Z AUTO 03004KT 10SM CLR M09/M13 A2936 RMK AO2 SLP947 T10941128 FZRANO
PAHC 221156Z AUTO 03004KT 10SM CLR M09/M12 A2935 RMK AO2 SLP942 T10891122 11050 21089 51009 FZRANO
PAHC 221056Z AUTO 01005KT 10SM CLR M09/M12 A2934 RMK AO2 SLP941 T10891117 FZRANO
PAHC 220956Z AUTO 01004KT 10SM CLR M08/M11 A2933 RMK AO2 SLP936 T10781111 FZRANO
PAHC 220856Z AUTO 03003KT 10SM CLR M07/M11 A2932 RMK AO2 SLP933 T10721111 400001078 51009 FZRANO
PAHC 220756Z AUTO 04003KT 10SM BKN065 M06/M11 A2932 RMK AO2 SLP932 T10611111 FZRANO
PAHC 220656Z AUTO VRB04KT 10SM BKN060 M06/M10 A2931 RMK AO2 SLP929 T10561100 FZRANO
PAHC 220556Z AUTO VRB03KT 10SM BKN065 M05/M10 A2929 RMK AO2 SLP924 T10501100 11006 21056 53008 FZRANO